sensor_id;sensor_type;location;lat;lon;timestamp;P1;durP1;ratioP1;P2;durP2;ratioP2
74941;SDS011;63506;49.346;8.798;2024-03-29T00:00:46;4.13;;;1.02;;
74941;SDS011;63506;49.346;8.798;2024-03-29T00:03:28;1.98;;;1.23;;
74941;SDS011;63506;49.346;8.798;2024-03-29T00:06:10;2.95;;;1.40;;
74941;SDS011;63506;49.346;8.798;2024-03-29T00:08:54;3.08;;;1.35;;
74941;SDS011;63506;49.346;8.798;2024-03-29T00:11:35;4.70;;;1.30;;
74941;SDS011;63506;49.346;8.798;2024-03-29T00:14:19;3.80;;;1.65;;
74941;SDS011;63506;49.346;8.798;2024-03-29T00:17:06;2.65;;;1.40;;
74941;SDS011;63506;49.346;8.798;2024-03-29T00:19:48;3.17;;;1.40;;
74941;SDS011;63506;49.346;8.798;2024-03-29T00:22:32;2.33;;;1.20;;
74941;SDS011;63506;49.346;8.798;2024-03-29T00:25:16;4.28;;;1.77;;
74941;SDS011;63506;49.346;8.798;2024-03-29T00:27:58;4.30;;;1.48;;
74941;SDS011;63506;49.346;8.798;2024-03-29T00:30:39;1.55;;;1.10;;
74941;SDS011;63506;49.346;8.798;2024-03-29T00:33:26;3.10;;;1.35;;
74941;SDS011;63506;49.346;8.798;2024-03-29T00:36:08;2.70;;;1.27;;
74941;SDS011;63506;49.346;8.798;2024-03-29T00:38:54;2.45;;;1.33;;
74941;SDS011;63506;49.346;8.798;2024-03-29T00:41:38;2.13;;;1.25;;
74941;SDS011;63506;49.346;8.798;2024-03-29T00:44:22;1.95;;;1.20;;
74941;SDS011;63506;49.346;8.798;2024-03-29T00:47:04;2.28;;;1.40;;
74941;SDS011;63506;49.346;8.798;2024-03-29T00:49:49;2.08;;;0.98;;
74941;SDS011;63506;49.346;8.798;2024-03-29T00:52:31;1.98;;;1.20;;
74941;SDS011;63506;49.346;8.798;2024-03-29T00:55:13;3.33;;;1.35;;
74941;SDS011;63506;49.346;8.798;2024-03-29T00:57:57;1.83;;;1.13;;
74941;SDS011;63506;49.346;8.798;2024-03-29T01:00:41;5.20;;;1.17;;
74941;SDS011;63506;49.346;8.798;2024-03-29T01:03:23;2.00;;;1.10;;
74941;SDS011;63506;49.346;8.798;2024-03-29T01:06:09;2.15;;;1.33;;
74941;SDS011;63506;49.346;8.798;2024-03-29T01:08:53;2.58;;;1.30;;
74941;SDS011;63506;49.346;8.798;2024-03-29T01:11:35;2.83;;;1.30;;
74941;SDS011;63506;49.346;8.798;2024-03-29T01:14:19;2.47;;;1.20;;
74941;SDS011;63506;49.346;8.798;2024-03-29T01:17:01;1.38;;;1.00;;
74941;SDS011;63506;49.346;8.798;2024-03-29T01:19:43;2.92;;;1.20;;
74941;SDS011;63506;49.346;8.798;2024-03-29T01:22:30;2.30;;;1.20;;
74941;SDS011;63506;49.346;8.798;2024-03-29T01:25:11;1.90;;;1.25;;
74941;SDS011;63506;49.346;8.798;2024-03-29T01:27:55;2.63;;;1.45;;
74941;SDS011;63506;49.346;8.798;2024-03-29T01:30:37;2.38;;;1.40;;
74941;SDS011;63506;49.346;8.798;2024-03-29T01:33:19;1.58;;;1.23;;
74941;SDS011;63506;49.346;8.798;2024-03-29T01:36:03;4.22;;;1.48;;
74941;SDS011;63506;49.346;8.798;2024-03-29T01:38:47;4.57;;;2.08;;
74941;SDS011;63506;49.346;8.798;2024-03-29T01:41:33;4.30;;;1.75;;
74941;SDS011;63506;49.346;8.798;2024-03-29T01:44:15;2.55;;;1.60;;
74941;SDS011;63506;49.346;8.798;2024-03-29T01:46:57;4.88;;;1.65;;
74941;SDS011;63506;49.346;8.798;2024-03-29T01:49:41;3.17;;;1.63;;
74941;SDS011;63506;49.346;8.798;2024-03-29T01:55:13;2.15;;;1.23;;
74941;SDS011;63506;49.346;8.798;2024-03-29T01:57:57;5.78;;;1.35;;
74941;SDS011;63506;49.346;8.798;2024-03-29T02:00:41;4.20;;;1.52;;
74941;SDS011;63506;49.346;8.798;2024-03-29T02:03:25;2.70;;;1.50;;
74941;SDS011;63506;49.346;8.798;2024-03-29T02:06:07;2.75;;;1.50;;
74941;SDS011;63506;49.346;8.798;2024-03-29T02:08:52;4.47;;;1.80;;
74941;SDS011;63506;49.346;8.798;2024-03-29T02:11:39;2.72;;;1.50;;
74941;SDS011;63506;49.346;8.798;2024-03-29T02:14:20;2.13;;;1.23;;
74941;SDS011;63506;49.346;8.798;2024-03-29T02:17:04;2.08;;;1.38;;
74941;SDS011;63506;49.346;8.798;2024-03-29T02:19:49;6.63;;;1.65;;
74941;SDS011;63506;49.346;8.798;2024-03-29T02:22:33;4.07;;;1.40;;
74941;SDS011;63506;49.346;8.798;2024-03-29T02:25:25;1.75;;;0.95;;
74941;SDS011;63506;49.346;8.798;2024-03-29T02:28:12;4.07;;;1.10;;
74941;SDS011;63506;49.346;8.798;2024-03-29T02:30:56;2.28;;;1.25;;
74941;SDS011;63506;49.346;8.798;2024-03-29T02:33:40;2.20;;;1.58;;
74941;SDS011;63506;49.346;8.798;2024-03-29T02:36:24;4.32;;;1.88;;
74941;SDS011;63506;49.346;8.798;2024-03-29T02:39:06;3.72;;;1.25;;
74941;SDS011;63506;49.346;8.798;2024-03-29T02:41:50;2.28;;;1.10;;
74941;SDS011;63506;49.346;8.798;2024-03-29T02:44:34;2.40;;;1.30;;
74941;SDS011;63506;49.346;8.798;2024-03-29T02:47:16;1.27;;;1.00;;
74941;SDS011;63506;49.346;8.798;2024-03-29T02:49:57;3.70;;;1.35;;
74941;SDS011;63506;49.346;8.798;2024-03-29T02:52:41;2.10;;;1.48;;
74941;SDS011;63506;49.346;8.798;2024-03-29T02:55:26;2.05;;;1.20;;
74941;SDS011;63506;49.346;8.798;2024-03-29T02:58:13;1.02;;;0.95;;
74941;SDS011;63506;49.346;8.798;2024-03-29T03:00:57;2.50;;;1.40;;
74941;SDS011;63506;49.346;8.798;2024-03-29T03:03:48;1.70;;;1.00;;
74941;SDS011;63506;49.346;8.798;2024-03-29T03:06:32;1.45;;;0.95;;
74941;SDS011;63506;49.346;8.798;2024-03-29T03:09:19;2.88;;;1.23;;
74941;SDS011;63506;49.346;8.798;2024-03-29T03:12:20;2.75;;;1.38;;
74941;SDS011;63506;49.346;8.798;2024-03-29T03:15:07;1.90;;;1.15;;
74941;SDS011;63506;49.346;8.798;2024-03-29T03:17:49;2.92;;;1.00;;
74941;SDS011;63506;49.346;8.798;2024-03-29T03:20:31;2.70;;;1.45;;
74941;SDS011;63506;49.346;8.798;2024-03-29T03:23:14;1.33;;;0.98;;
74941;SDS011;63506;49.346;8.798;2024-03-29T03:25:56;2.95;;;1.40;;
74941;SDS011;63506;49.346;8.798;2024-03-29T03:28:39;2.40;;;1.20;;
74941;SDS011;63506;49.346;8.798;2024-03-29T03:31:26;1.52;;;1.05;;
74941;SDS011;63506;49.346;8.798;2024-03-29T03:34:10;1.88;;;1.58;;
74941;SDS011;63506;49.346;8.798;2024-03-29T03:36:52;1.77;;;1.27;;
74941;SDS011;63506;49.346;8.798;2024-03-29T03:39:36;2.33;;;1.00;;
74941;SDS011;63506;49.346;8.798;2024-03-29T03:42:21;2.35;;;1.48;;
74941;SDS011;63506;49.346;8.798;2024-03-29T03:45:05;2.50;;;1.42;;
74941;SDS011;63506;49.346;8.798;2024-03-29T03:47:52;1.67;;;0.85;;
74941;SDS011;63506;49.346;8.798;2024-03-29T03:50:36;1.80;;;1.08;;
74941;SDS011;63506;49.346;8.798;2024-03-29T03:53:18;2.35;;;1.35;;
74941;SDS011;63506;49.346;8.798;2024-03-29T03:56:02;3.40;;;1.25;;
74941;SDS011;63506;49.346;8.798;2024-03-29T03:58:44;2.25;;;1.20;;
74941;SDS011;63506;49.346;8.798;2024-03-29T04:01:26;3.58;;;1.15;;
74941;SDS011;63506;49.346;8.798;2024-03-29T04:04:10;0.98;;;0.70;;
74941;SDS011;63506;49.346;8.798;2024-03-29T04:06:51;1.58;;;1.08;;
74941;SDS011;63506;49.346;8.798;2024-03-29T04:09:33;3.00;;;0.88;;
74941;SDS011;63506;49.346;8.798;2024-03-29T04:12:15;2.15;;;0.90;;
74941;SDS011;63506;49.346;8.798;2024-03-29T04:14:59;2.22;;;1.08;;
74941;SDS011;63506;49.346;8.798;2024-03-29T04:20:27;1.35;;;1.10;;
74941;SDS011;63506;49.346;8.798;2024-03-29T04:23:11;1.63;;;1.30;;
74941;SDS011;63506;49.346;8.798;2024-03-29T04:25:55;1.52;;;1.05;;
74941;SDS011;63506;49.346;8.798;2024-03-29T04:28:40;1.85;;;0.82;;
74941;SDS011;63506;49.346;8.798;2024-03-29T04:31:21;1.73;;;1.02;;
74941;SDS011;63506;49.346;8.798;2024-03-29T04:34:05;2.95;;;1.05;;
74941;SDS011;63506;49.346;8.798;2024-03-29T04:36:49;1.90;;;0.80;;
74941;SDS011;63506;49.346;8.798;2024-03-29T04:39:36;1.75;;;0.93;;
74941;SDS011;63506;49.346;8.798;2024-03-29T04:42:17;1.20;;;0.70;;
74941;SDS011;63506;49.346;8.798;2024-03-29T04:44:59;2.40;;;0.80;;
74941;SDS011;63506;49.346;8.798;2024-03-29T04:47:46;1.73;;;0.90;;
74941;SDS011;63506;49.346;8.798;2024-03-29T04:53:14;1.77;;;0.73;;
74941;SDS011;63506;49.346;8.798;2024-03-29T04:56:01;1.60;;;1.00;;
74941;SDS011;63506;49.346;8.798;2024-03-29T04:58:43;2.17;;;0.85;;
74941;SDS011;63506;49.346;8.798;2024-03-29T05:01:29;1.85;;;0.90;;
74941;SDS011;63506;49.346;8.798;2024-03-29T05:04:16;1.63;;;1.00;;
74941;SDS011;63506;49.346;8.798;2024-03-29T05:07:03;2.35;;;0.90;;
74941;SDS011;63506;49.346;8.798;2024-03-29T05:12:33;1.27;;;0.82;;
74941;SDS011;63506;49.346;8.798;2024-03-29T05:15:14;1.50;;;0.82;;
74941;SDS011;63506;49.346;8.798;2024-03-29T05:17:56;1.38;;;0.70;;
74941;SDS011;63506;49.346;8.798;2024-03-29T05:20:38;1.50;;;0.70;;
74941;SDS011;63506;49.346;8.798;2024-03-29T05:23:23;1.48;;;0.93;;
74941;SDS011;63506;49.346;8.798;2024-03-29T05:26:07;1.23;;;0.95;;
74941;SDS011;63506;49.346;8.798;2024-03-29T05:28:49;1.67;;;0.80;;
74941;SDS011;63506;49.346;8.798;2024-03-29T05:31:30;2.42;;;1.10;;
74941;SDS011;63506;49.346;8.798;2024-03-29T05:34:12;1.48;;;0.80;;
74941;SDS011;63506;49.346;8.798;2024-03-29T05:36:56;1.80;;;0.80;;
74941;SDS011;63506;49.346;8.798;2024-03-29T05:39:38;0.93;;;0.77;;
74941;SDS011;63506;49.346;8.798;2024-03-29T05:42:22;1.33;;;0.70;;
74941;SDS011;63506;49.346;8.798;2024-03-29T05:45:20;1.00;;;0.50;;
74941;SDS011;63506;49.346;8.798;2024-03-29T05:48:06;3.83;;;0.82;;
74941;SDS011;63506;49.346;8.798;2024-03-29T05:50:50;1.50;;;0.75;;
74941;SDS011;63506;49.346;8.798;2024-03-29T05:53:32;3.13;;;1.02;;
74941;SDS011;63506;49.346;8.798;2024-03-29T05:56:16;4.10;;;0.90;;
74941;SDS011;63506;49.346;8.798;2024-03-29T05:59:00;1.05;;;0.80;;
74941;SDS011;63506;49.346;8.798;2024-03-29T06:01:42;1.30;;;1.00;;
74941;SDS011;63506;49.346;8.798;2024-03-29T06:04:26;3.55;;;0.98;;
74941;SDS011;63506;49.346;8.798;2024-03-29T06:07:11;1.83;;;0.90;;
74941;SDS011;63506;49.346;8.798;2024-03-29T06:09:52;1.70;;;1.10;;
74941;SDS011;63506;49.346;8.798;2024-03-29T06:12:39;2.70;;;1.20;;
74941;SDS011;63506;49.346;8.798;2024-03-29T06:15:28;1.63;;;1.13;;
74941;SDS011;63506;49.346;8.798;2024-03-29T06:18:27;1.92;;;0.98;;
74941;SDS011;63506;49.346;8.798;2024-03-29T06:23:54;1.52;;;0.77;;
74941;SDS011;63506;49.346;8.798;2024-03-29T06:26:38;2.22;;;0.90;;
74941;SDS011;63506;49.346;8.798;2024-03-29T06:29:22;2.75;;;1.13;;
74941;SDS011;63506;49.346;8.798;2024-03-29T06:34:50;1.45;;;0.70;;
74941;SDS011;63506;49.346;8.798;2024-03-29T06:40:15;1.88;;;0.60;;
74941;SDS011;63506;49.346;8.798;2024-03-29T06:42:57;4.47;;;1.02;;
74941;SDS011;63506;49.346;8.798;2024-03-29T06:45:39;2.33;;;1.05;;
74941;SDS011;63506;49.346;8.798;2024-03-29T06:48:26;2.10;;;1.10;;
74941;SDS011;63506;49.346;8.798;2024-03-29T06:51:12;2.22;;;0.82;;
74941;SDS011;63506;49.346;8.798;2024-03-29T06:53:54;2.45;;;0.85;;
74941;SDS011;63506;49.346;8.798;2024-03-29T06:56:38;1.95;;;1.00;;
74941;SDS011;63506;49.346;8.798;2024-03-29T07:02:06;1.10;;;0.60;;
74941;SDS011;63506;49.346;8.798;2024-03-29T07:04:50;2.38;;;0.80;;
74941;SDS011;63506;49.346;8.798;2024-03-29T07:07:32;2.22;;;0.60;;
74941;SDS011;63506;49.346;8.798;2024-03-29T07:10:16;2.45;;;0.98;;
74941;SDS011;63506;49.346;8.798;2024-03-29T07:12:57;2.47;;;0.85;;
74941;SDS011;63506;49.346;8.798;2024-03-29T07:15:39;2.42;;;1.20;;
74941;SDS011;63506;49.346;8.798;2024-03-29T07:18:21;2.03;;;1.00;;
74941;SDS011;63506;49.346;8.798;2024-03-29T07:23:53;3.13;;;1.17;;
74941;SDS011;63506;49.346;8.798;2024-03-29T07:29:21;4.25;;;1.10;;
74941;SDS011;63506;49.346;8.798;2024-03-29T07:32:03;2.80;;;1.00;;
74941;SDS011;63506;49.346;8.798;2024-03-29T07:37:48;3.35;;;1.30;;
74941;SDS011;63506;49.346;8.798;2024-03-29T07:40:29;2.70;;;0.98;;
74941;SDS011;63506;49.346;8.798;2024-03-29T07:43:11;3.67;;;1.25;;
74941;SDS011;63506;49.346;8.798;2024-03-29T07:45:53;1.88;;;1.40;;
74941;SDS011;63506;49.346;8.798;2024-03-29T07:48:35;4.22;;;1.25;;
74941;SDS011;63506;49.346;8.798;2024-03-29T07:51:17;2.60;;;1.05;;
74941;SDS011;63506;49.346;8.798;2024-03-29T07:54:01;4.03;;;1.50;;
74941;SDS011;63506;49.346;8.798;2024-03-29T07:56:43;2.78;;;1.55;;
74941;SDS011;63506;49.346;8.798;2024-03-29T07:59:25;2.10;;;1.08;;
74941;SDS011;63506;49.346;8.798;2024-03-29T08:02:06;4.53;;;1.27;;
74941;SDS011;63506;49.346;8.798;2024-03-29T08:04:51;2.75;;;1.25;;
74941;SDS011;63506;49.346;8.798;2024-03-29T08:07:33;2.60;;;1.40;;
74941;SDS011;63506;49.346;8.798;2024-03-29T08:10:18;4.10;;;1.40;;
74941;SDS011;63506;49.346;8.798;2024-03-29T08:13:02;2.47;;;1.33;;
74941;SDS011;63506;49.346;8.798;2024-03-29T08:15:47;2.30;;;1.55;;
74941;SDS011;63506;49.346;8.798;2024-03-29T08:18:31;2.85;;;1.38;;
74941;SDS011;63506;49.346;8.798;2024-03-29T08:21:13;3.05;;;1.27;;
74941;SDS011;63506;49.346;8.798;2024-03-29T08:23:57;2.08;;;1.23;;
74941;SDS011;63506;49.346;8.798;2024-03-29T08:26:41;2.78;;;1.40;;
74941;SDS011;63506;49.346;8.798;2024-03-29T08:29:28;1.75;;;1.20;;
74941;SDS011;63506;49.346;8.798;2024-03-29T08:32:09;3.20;;;1.40;;
74941;SDS011;63506;49.346;8.798;2024-03-29T08:34:53;2.03;;;1.38;;
74941;SDS011;63506;49.346;8.798;2024-03-29T08:37:35;2.92;;;1.50;;
74941;SDS011;63506;49.346;8.798;2024-03-29T08:40:17;1.80;;;1.52;;
74941;SDS011;63506;49.346;8.798;2024-03-29T08:43:03;2.50;;;1.60;;
74941;SDS011;63506;49.346;8.798;2024-03-29T08:45:45;4.53;;;1.60;;
74941;SDS011;63506;49.346;8.798;2024-03-29T08:48:27;2.30;;;1.35;;
74941;SDS011;63506;49.346;8.798;2024-03-29T08:51:09;4.07;;;1.58;;
74941;SDS011;63506;49.346;8.798;2024-03-29T08:53:51;2.28;;;1.60;;
74941;SDS011;63506;49.346;8.798;2024-03-29T08:56:32;3.65;;;1.83;;
74941;SDS011;63506;49.346;8.798;2024-03-29T08:59:22;3.75;;;1.60;;
74941;SDS011;63506;49.346;8.798;2024-03-29T09:02:04;2.58;;;1.63;;
74941;SDS011;63506;49.346;8.798;2024-03-29T09:04:47;2.17;;;1.48;;
74941;SDS011;63506;49.346;8.798;2024-03-29T09:07:31;4.22;;;1.40;;
74941;SDS011;63506;49.346;8.798;2024-03-29T09:10:13;4.95;;;1.92;;
74941;SDS011;63506;49.346;8.798;2024-03-29T09:12:54;2.78;;;1.67;;
74941;SDS011;63506;49.346;8.798;2024-03-29T09:15:39;4.35;;;2.22;;
74941;SDS011;63506;49.346;8.798;2024-03-29T09:18:23;3.65;;;2.42;;
74941;SDS011;63506;49.346;8.798;2024-03-29T09:21:04;4.28;;;2.55;;
74941;SDS011;63506;49.346;8.798;2024-03-29T09:23:51;4.22;;;2.20;;
74941;SDS011;63506;49.346;8.798;2024-03-29T09:26:35;2.38;;;1.65;;
74941;SDS011;63506;49.346;8.798;2024-03-29T09:29:19;4.53;;;1.85;;
74941;SDS011;63506;49.346;8.798;2024-03-29T09:32:06;3.75;;;1.80;;
74941;SDS011;63506;49.346;8.798;2024-03-29T09:34:50;3.92;;;1.63;;
74941;SDS011;63506;49.346;8.798;2024-03-29T09:37:34;3.30;;;1.63;;
74941;SDS011;63506;49.346;8.798;2024-03-29T09:40:19;4.15;;;1.52;;
74941;SDS011;63506;49.346;8.798;2024-03-29T09:43:01;2.65;;;1.38;;
74941;SDS011;63506;49.346;8.798;2024-03-29T09:45:48;2.10;;;1.35;;
74941;SDS011;63506;49.346;8.798;2024-03-29T09:48:35;3.47;;;1.73;;
74941;SDS011;63506;49.346;8.798;2024-03-29T09:51:20;2.28;;;1.10;;
74941;SDS011;63506;49.346;8.798;2024-03-29T09:54:05;4.80;;;1.50;;
74941;SDS011;63506;49.346;8.798;2024-03-29T09:56:50;2.20;;;1.08;;
74941;SDS011;63506;49.346;8.798;2024-03-29T09:59:34;1.85;;;0.98;;
74941;SDS011;63506;49.346;8.798;2024-03-29T10:02:18;2.33;;;1.08;;
74941;SDS011;63506;49.346;8.798;2024-03-29T10:05:05;2.10;;;1.05;;
74941;SDS011;63506;49.346;8.798;2024-03-29T10:07:49;2.10;;;1.50;;
74941;SDS011;63506;49.346;8.798;2024-03-29T10:10:33;1.88;;;0.95;;
74941;SDS011;63506;49.346;8.798;2024-03-29T10:13:15;1.65;;;1.00;;
74941;SDS011;63506;49.346;8.798;2024-03-29T10:15:57;5.07;;;1.25;;
74941;SDS011;63506;49.346;8.798;2024-03-29T10:18:47;5.55;;;1.40;;
74941;SDS011;63506;49.346;8.798;2024-03-29T10:21:35;2.45;;;1.13;;
74941;SDS011;63506;49.346;8.798;2024-03-29T10:24:16;2.47;;;1.35;;
74941;SDS011;63506;49.346;8.798;2024-03-29T10:29:42;2.00;;;1.38;;
74941;SDS011;63506;49.346;8.798;2024-03-29T10:32:23;2.30;;;1.40;;
74941;SDS011;63506;49.346;8.798;2024-03-29T10:35:06;3.08;;;1.15;;
74941;SDS011;63506;49.346;8.798;2024-03-29T10:40:33;1.58;;;0.90;;
74941;SDS011;63506;49.346;8.798;2024-03-29T10:43:17;1.85;;;1.15;;
74941;SDS011;63506;49.346;8.798;2024-03-29T10:46:01;1.85;;;1.10;;
74941;SDS011;63506;49.346;8.798;2024-03-29T10:48:42;2.90;;;1.27;;
74941;SDS011;63506;49.346;8.798;2024-03-29T10:51:25;2.42;;;1.17;;
74941;SDS011;63506;49.346;8.798;2024-03-29T10:54:13;6.03;;;1.73;;
74941;SDS011;63506;49.346;8.798;2024-03-29T10:56:58;1.98;;;1.38;;
74941;SDS011;63506;49.346;8.798;2024-03-29T10:59:48;3.28;;;1.23;;
74941;SDS011;63506;49.346;8.798;2024-03-29T11:02:44;2.20;;;1.30;;
74941;SDS011;63506;49.346;8.798;2024-03-29T11:05:31;3.60;;;1.38;;
74941;SDS011;63506;49.346;8.798;2024-03-29T11:08:16;2.42;;;1.08;;
74941;SDS011;63506;49.346;8.798;2024-03-29T11:11:11;4.13;;;1.10;;
74941;SDS011;63506;49.346;8.798;2024-03-29T11:13:56;2.40;;;1.10;;
74941;SDS011;63506;49.346;8.798;2024-03-29T11:16:49;2.88;;;0.80;;
74941;SDS011;63506;49.346;8.798;2024-03-29T11:19:36;1.73;;;1.05;;
74941;SDS011;63506;49.346;8.798;2024-03-29T11:22:21;3.70;;;1.23;;
74941;SDS011;63506;49.346;8.798;2024-03-29T11:25:06;1.98;;;1.13;;
74941;SDS011;63506;49.346;8.798;2024-03-29T11:27:50;2.58;;;1.17;;
74941;SDS011;63506;49.346;8.798;2024-03-29T11:30:32;2.47;;;1.38;;
74941;SDS011;63506;49.346;8.798;2024-03-29T11:33:25;2.75;;;1.25;;
74941;SDS011;63506;49.346;8.798;2024-03-29T11:36:10;4.82;;;1.27;;
74941;SDS011;63506;49.346;8.798;2024-03-29T11:38:53;3.72;;;1.20;;
74941;SDS011;63506;49.346;8.798;2024-03-29T11:41:45;2.42;;;1.02;;
74941;SDS011;63506;49.346;8.798;2024-03-29T11:44:32;1.83;;;1.30;;
74941;SDS011;63506;49.346;8.798;2024-03-29T11:47:16;1.30;;;0.98;;
74941;SDS011;63506;49.346;8.798;2024-03-29T11:50:06;4.68;;;1.27;;
74941;SDS011;63506;49.346;8.798;2024-03-29T11:52:50;4.82;;;1.90;;
74941;SDS011;63506;49.346;8.798;2024-03-29T11:55:32;2.42;;;1.20;;
74941;SDS011;63506;49.346;8.798;2024-03-29T11:58:16;2.67;;;1.23;;
74941;SDS011;63506;49.346;8.798;2024-03-29T12:01:02;2.55;;;1.50;;
74941;SDS011;63506;49.346;8.798;2024-03-29T12:03:47;4.70;;;2.35;;
74941;SDS011;63506;49.346;8.798;2024-03-29T12:06:31;4.72;;;2.20;;
74941;SDS011;63506;49.346;8.798;2024-03-29T12:09:13;3.45;;;1.88;;
74941;SDS011;63506;49.346;8.798;2024-03-29T12:11:54;2.55;;;1.77;;
74941;SDS011;63506;49.346;8.798;2024-03-29T12:14:39;3.80;;;1.92;;
74941;SDS011;63506;49.346;8.798;2024-03-29T12:17:23;3.28;;;2.10;;
74941;SDS011;63506;49.346;8.798;2024-03-29T12:20:07;2.35;;;2.15;;
74941;SDS011;63506;49.346;8.798;2024-03-29T12:22:50;4.30;;;2.17;;
74941;SDS011;63506;49.346;8.798;2024-03-29T12:25:35;5.63;;;2.45;;
74941;SDS011;63506;49.346;8.798;2024-03-29T12:28:22;5.05;;;2.28;;
74941;SDS011;63506;49.346;8.798;2024-03-29T12:31:08;9.40;;;2.78;;
74941;SDS011;63506;49.346;8.798;2024-03-29T12:33:54;5.72;;;2.72;;
74941;SDS011;63506;49.346;8.798;2024-03-29T13:45:23;2.47;;;1.88;;
74941;SDS011;63506;49.346;8.798;2024-03-29T13:48:07;2.33;;;1.45;;
74941;SDS011;63506;49.346;8.798;2024-03-29T13:50:51;3.20;;;1.95;;
74941;SDS011;63506;49.346;8.798;2024-03-29T13:53:33;5.03;;;1.95;;
74941;SDS011;63506;49.346;8.798;2024-03-29T13:56:17;3.72;;;2.03;;
74941;SDS011;63506;49.346;8.798;2024-03-29T13:59:01;7.57;;;3.80;;
74941;SDS011;63506;49.346;8.798;2024-03-29T14:01:43;3.85;;;1.98;;
74941;SDS011;63506;49.346;8.798;2024-03-29T14:04:27;2.17;;;1.50;;
74941;SDS011;63506;49.346;8.798;2024-03-29T14:07:14;3.88;;;1.98;;
74941;SDS011;63506;49.346;8.798;2024-03-29T14:09:58;1.85;;;1.20;;
74941;SDS011;63506;49.346;8.798;2024-03-29T14:12:42;5.55;;;2.45;;
74941;SDS011;63506;49.346;8.798;2024-03-29T14:15:29;4.68;;;2.10;;
74941;SDS011;63506;49.346;8.798;2024-03-29T14:18:10;2.28;;;1.33;;
74941;SDS011;63506;49.346;8.798;2024-03-29T14:20:54;4.18;;;1.73;;
74941;SDS011;63506;49.346;8.798;2024-03-29T14:23:38;2.95;;;1.65;;
74941;SDS011;63506;49.346;8.798;2024-03-29T14:29:04;2.65;;;1.65;;
74941;SDS011;63506;49.346;8.798;2024-03-29T14:31:51;3.88;;;1.60;;
74941;SDS011;63506;49.346;8.798;2024-03-29T14:34:35;3.03;;;1.10;;
74941;SDS011;63506;49.346;8.798;2024-03-29T14:37:19;2.88;;;1.38;;
74941;SDS011;63506;49.346;8.798;2024-03-29T14:40:04;2.20;;;1.42;;
74941;SDS011;63506;49.346;8.798;2024-03-29T14:42:48;2.28;;;1.42;;
74941;SDS011;63506;49.346;8.798;2024-03-29T14:45:32;2.97;;;2.15;;
74941;SDS011;63506;49.346;8.798;2024-03-29T14:48:16;2.15;;;1.80;;
74941;SDS011;63506;49.346;8.798;2024-03-29T14:51:01;1.90;;;1.30;;
74941;SDS011;63506;49.346;8.798;2024-03-29T14:53:45;1.95;;;1.20;;
74941;SDS011;63506;49.346;8.798;2024-03-29T14:56:29;2.13;;;1.30;;
74941;SDS011;63506;49.346;8.798;2024-03-29T14:59:14;2.38;;;1.15;;
74941;SDS011;63506;49.346;8.798;2024-03-29T15:01:55;1.67;;;1.13;;
74941;SDS011;63506;49.346;8.798;2024-03-29T15:04:39;2.10;;;0.93;;
74941;SDS011;63506;49.346;8.798;2024-03-29T15:07:24;2.03;;;1.13;;
74941;SDS011;63506;49.346;8.798;2024-03-29T15:10:10;1.52;;;1.00;;
74941;SDS011;63506;49.346;8.798;2024-03-29T15:12:58;3.50;;;1.20;;
74941;SDS011;63506;49.346;8.798;2024-03-29T15:15:40;2.00;;;1.13;;
74941;SDS011;63506;49.346;8.798;2024-03-29T15:18:24;2.00;;;1.17;;
74941;SDS011;63506;49.346;8.798;2024-03-29T15:21:08;2.58;;;1.40;;
74941;SDS011;63506;49.346;8.798;2024-03-29T15:23:50;2.30;;;1.23;;
74941;SDS011;63506;49.346;8.798;2024-03-29T15:26:31;2.25;;;1.13;;
74941;SDS011;63506;49.346;8.798;2024-03-29T15:29:18;2.40;;;1.08;;
74941;SDS011;63506;49.346;8.798;2024-03-29T15:32:02;1.55;;;1.13;;
74941;SDS011;63506;49.346;8.798;2024-03-29T15:34:48;1.70;;;1.20;;
74941;SDS011;63506;49.346;8.798;2024-03-29T15:37:32;2.05;;;1.30;;
74941;SDS011;63506;49.346;8.798;2024-03-29T15:40:14;2.10;;;1.48;;
74941;SDS011;63506;49.346;8.798;2024-03-29T15:42:58;3.42;;;1.50;;
74941;SDS011;63506;49.346;8.798;2024-03-29T15:45:40;1.92;;;1.40;;
74941;SDS011;63506;49.346;8.798;2024-03-29T15:48:26;4.45;;;1.80;;
74941;SDS011;63506;49.346;8.798;2024-03-29T15:51:08;3.45;;;1.45;;
74941;SDS011;63506;49.346;8.798;2024-03-29T15:53:55;2.75;;;1.90;;
74941;SDS011;63506;49.346;8.798;2024-03-29T15:56:39;2.17;;;1.40;;
74941;SDS011;63506;49.346;8.798;2024-03-29T15:59:23;2.25;;;1.27;;
74941;SDS011;63506;49.346;8.798;2024-03-29T16:02:05;3.25;;;1.60;;
74941;SDS011;63506;49.346;8.798;2024-03-29T16:04:49;1.80;;;1.35;;
74941;SDS011;63506;49.346;8.798;2024-03-29T16:07:33;2.92;;;1.45;;
74941;SDS011;63506;49.346;8.798;2024-03-29T16:10:20;2.80;;;1.45;;
74941;SDS011;63506;49.346;8.798;2024-03-29T16:13:04;1.90;;;1.30;;
74941;SDS011;63506;49.346;8.798;2024-03-29T16:15:48;2.55;;;1.58;;
74941;SDS011;63506;49.346;8.798;2024-03-29T16:18:32;2.22;;;1.52;;
74941;SDS011;63506;49.346;8.798;2024-03-29T16:21:17;2.95;;;1.50;;
74941;SDS011;63506;49.346;8.798;2024-03-29T16:23:59;3.50;;;1.70;;
74941;SDS011;63506;49.346;8.798;2024-03-29T16:26:45;2.05;;;1.50;;
74941;SDS011;63506;49.346;8.798;2024-03-29T16:29:27;2.25;;;1.65;;
74941;SDS011;63506;49.346;8.798;2024-03-29T16:32:11;3.08;;;1.67;;
74941;SDS011;63506;49.346;8.798;2024-03-29T16:34:55;3.15;;;1.63;;
74941;SDS011;63506;49.346;8.798;2024-03-29T16:37:37;2.63;;;1.75;;
74941;SDS011;63506;49.346;8.798;2024-03-29T16:40:21;2.72;;;1.67;;
74941;SDS011;63506;49.346;8.798;2024-03-29T16:43:05;2.80;;;1.60;;
74941;SDS011;63506;49.346;8.798;2024-03-29T16:45:47;2.13;;;1.65;;
74941;SDS011;63506;49.346;8.798;2024-03-29T16:48:31;3.33;;;1.60;;
74941;SDS011;63506;49.346;8.798;2024-03-29T16:51:15;1.95;;;1.50;;
74941;SDS011;63506;49.346;8.798;2024-03-29T16:53:59;3.35;;;1.52;;
74941;SDS011;63506;49.346;8.798;2024-03-29T16:56:45;2.42;;;1.45;;
74941;SDS011;63506;49.346;8.798;2024-03-29T17:03:15;4.10;;;1.50;;
74941;SDS011;63506;49.346;8.798;2024-03-29T17:05:57;3.65;;;1.58;;
74941;SDS011;63506;49.346;8.798;2024-03-29T17:08:41;3.90;;;1.77;;
74941;SDS011;63506;49.346;8.798;2024-03-29T17:11:27;1.98;;;1.30;;
74941;SDS011;63506;49.346;8.798;2024-03-29T17:14:11;2.00;;;1.35;;
74941;SDS011;63506;49.346;8.798;2024-03-29T17:16:55;1.98;;;1.48;;
74941;SDS011;63506;49.346;8.798;2024-03-29T17:19:40;2.47;;;1.73;;
74941;SDS011;63506;49.346;8.798;2024-03-29T17:22:21;2.95;;;2.10;;
74941;SDS011;63506;49.346;8.798;2024-03-29T17:25:04;2.88;;;1.65;;
74941;SDS011;63506;49.346;8.798;2024-03-29T17:27:49;3.15;;;1.98;;
74941;SDS011;63506;49.346;8.798;2024-03-29T17:30:35;3.03;;;2.13;;
74941;SDS011;63506;49.346;8.798;2024-03-29T17:33:19;12.77;;;2.05;;
74941;SDS011;63506;49.346;8.798;2024-03-29T17:38:47;3.00;;;1.63;;
74941;SDS011;63506;49.346;8.798;2024-03-29T17:41:29;5.00;;;2.88;;
74941;SDS011;63506;49.346;8.798;2024-03-29T17:44:14;2.30;;;1.98;;
74941;SDS011;63506;49.346;8.798;2024-03-29T17:46:58;4.05;;;1.83;;
74941;SDS011;63506;49.346;8.798;2024-03-29T17:49:40;4.85;;;1.70;;
74941;SDS011;63506;49.346;8.798;2024-03-29T17:52:26;3.88;;;2.10;;
74941;SDS011;63506;49.346;8.798;2024-03-29T17:55:10;4.35;;;2.47;;
74941;SDS011;63506;49.346;8.798;2024-03-29T17:57:52;4.28;;;2.15;;
74941;SDS011;63506;49.346;8.798;2024-03-29T18:00:34;3.95;;;2.38;;
74941;SDS011;63506;49.346;8.798;2024-03-29T18:03:18;2.33;;;1.83;;
74941;SDS011;63506;49.346;8.798;2024-03-29T18:06:02;10.70;;;4.32;;
74941;SDS011;63506;49.346;8.798;2024-03-29T18:08:46;4.15;;;2.33;;
74941;SDS011;63506;49.346;8.798;2024-03-29T18:11:28;5.57;;;2.33;;
74941;SDS011;63506;49.346;8.798;2024-03-29T18:14:10;4.68;;;2.40;;
74941;SDS011;63506;49.346;8.798;2024-03-29T18:16:54;6.25;;;2.25;;
74941;SDS011;63506;49.346;8.798;2024-03-29T18:19:39;3.85;;;2.35;;
74941;SDS011;63506;49.346;8.798;2024-03-29T18:22:21;3.25;;;2.75;;